sensor_id;sensor_type;location;lat;lon;timestamp;P1;durP1;ratioP1;P2;durP2;ratioP2
24961;SDS011;12992;50.884;13.668;2022-12-26T00:00:52;2.10;;;1.30;;
24961;SDS011;12992;50.884;13.668;2022-12-26T00:03:18;3.95;;;1.60;;
24961;SDS011;12992;50.884;13.668;2022-12-26T00:05:44;2.53;;;1.52;;
24961;SDS011;12992;50.884;13.668;2022-12-26T00:08:09;2.30;;;1.55;;
24961;SDS011;12992;50.884;13.668;2022-12-26T00:10:34;1.77;;;1.52;;
24961;SDS011;12992;50.884;13.668;2022-12-26T00:13:00;1.60;;;1.50;;
24961;SDS011;12992;50.884;13.668;2022-12-26T00:15:25;1.40;;;1.30;;
24961;SDS011;12992;50.884;13.668;2022-12-26T00:17:50;2.33;;;1.38;;
24961;SDS011;12992;50.884;13.668;2022-12-26T00:20:16;2.30;;;1.67;;
24961;SDS011;12992;50.884;13.668;2022-12-26T00:22:41;2.25;;;1.38;;
24961;SDS011;12992;50.884;13.668;2022-12-26T00:25:06;3.33;;;1.55;;
24961;SDS011;12992;50.884;13.668;2022-12-26T00:27:32;2.60;;;1.55;;
24961;SDS011;12992;50.884;13.668;2022-12-26T00:29:57;1.60;;;1.50;;
24961;SDS011;12992;50.884;13.668;2022-12-26T00:32:22;2.80;;;1.60;;
24961;SDS011;12992;50.884;13.668;2022-12-26T00:34:48;3.45;;;1.70;;
24961;SDS011;12992;50.884;13.668;2022-12-26T00:37:13;3.92;;;1.65;;
24961;SDS011;12992;50.884;13.668;2022-12-26T00:39:38;3.13;;;1.85;;
24961;SDS011;12992;50.884;13.668;2022-12-26T00:42:04;2.30;;;1.55;;
24961;SDS011;12992;50.884;13.668;2022-12-26T00:44:29;2.60;;;1.75;;
24961;SDS011;12992;50.884;13.668;2022-12-26T00:46:54;2.17;;;1.63;;
24961;SDS011;12992;50.884;13.668;2022-12-26T00:49:20;3.45;;;1.67;;
24961;SDS011;12992;50.884;13.668;2022-12-26T00:51:45;2.33;;;1.50;;
24961;SDS011;12992;50.884;13.668;2022-12-26T00:54:10;2.55;;;1.60;;
24961;SDS011;12992;50.884;13.668;2022-12-26T00:56:35;1.63;;;1.40;;
24961;SDS011;12992;50.884;13.668;2022-12-26T00:59:01;2.63;;;1.40;;
24961;SDS011;12992;50.884;13.668;2022-12-26T01:01:26;1.77;;;1.50;;
24961;SDS011;12992;50.884;13.668;2022-12-26T01:03:55;2.20;;;1.40;;
24961;SDS011;12992;50.884;13.668;2022-12-26T01:06:21;2.85;;;1.60;;
24961;SDS011;12992;50.884;13.668;2022-12-26T01:08:47;2.72;;;1.65;;
24961;SDS011;12992;50.884;13.668;2022-12-26T01:11:13;2.88;;;1.75;;
24961;SDS011;12992;50.884;13.668;2022-12-26T01:13:40;4.35;;;1.70;;
24961;SDS011;12992;50.884;13.668;2022-12-26T01:16:06;2.10;;;1.70;;
24961;SDS011;12992;50.884;13.668;2022-12-26T01:18:32;1.95;;;1.50;;
24961;SDS011;12992;50.884;13.668;2022-12-26T01:20:59;1.73;;;1.60;;
24961;SDS011;12992;50.884;13.668;2022-12-26T01:23:26;1.88;;;1.50;;
24961;SDS011;12992;50.884;13.668;2022-12-26T01:25:52;2.95;;;1.70;;
24961;SDS011;12992;50.884;13.668;2022-12-26T01:28:18;2.30;;;1.50;;
24961;SDS011;12992;50.884;13.668;2022-12-26T01:30:43;2.15;;;1.50;;
24961;SDS011;12992;50.884;13.668;2022-12-26T01:33:08;3.63;;;1.55;;
24961;SDS011;12992;50.884;13.668;2022-12-26T01:35:34;2.72;;;2.10;;
24961;SDS011;12992;50.884;13.668;2022-12-26T01:38:00;1.33;;;1.23;;
24961;SDS011;12992;50.884;13.668;2022-12-26T01:40:26;2.70;;;1.60;;
24961;SDS011;12992;50.884;13.668;2022-12-26T01:42:51;2.58;;;1.70;;
24961;SDS011;12992;50.884;13.668;2022-12-26T01:50:22;2.63;;;1.60;;
24961;SDS011;12992;50.884;13.668;2022-12-26T01:52:51;2.38;;;1.63;;
24961;SDS011;12992;50.884;13.668;2022-12-26T01:55:20;2.88;;;1.70;;
24961;SDS011;12992;50.884;13.668;2022-12-26T01:57:48;2.50;;;1.88;;
24961;SDS011;12992;50.884;13.668;2022-12-26T02:00:19;4.43;;;1.73;;
24961;SDS011;12992;50.884;13.668;2022-12-26T02:02:44;2.67;;;1.67;;
24961;SDS011;12992;50.884;13.668;2022-12-26T02:05:29;3.45;;;1.90;;
24961;SDS011;12992;50.884;13.668;2022-12-26T02:07:59;2.55;;;1.63;;
24961;SDS011;12992;50.884;13.668;2022-12-26T02:10:28;3.97;;;2.10;;
24961;SDS011;12992;50.884;13.668;2022-12-26T02:13:00;2.97;;;1.70;;
24961;SDS011;12992;50.884;13.668;2022-12-26T02:15:26;4.53;;;1.77;;
24961;SDS011;12992;50.884;13.668;2022-12-26T02:17:51;3.28;;;1.83;;
24961;SDS011;12992;50.884;13.668;2022-12-26T02:20:26;4.28;;;1.63;;
24961;SDS011;12992;50.884;13.668;2022-12-26T02:25:57;4.07;;;2.08;;
24961;SDS011;12992;50.884;13.668;2022-12-26T02:29:00;3.00;;;1.88;;
24961;SDS011;12992;50.884;13.668;2022-12-26T02:31:50;4.38;;;2.10;;
24961;SDS011;12992;50.884;13.668;2022-12-26T02:43:36;3.55;;;2.13;;
24961;SDS011;12992;50.884;13.668;2022-12-26T02:46:17;2.65;;;1.90;;
24961;SDS011;12992;50.884;13.668;2022-12-26T02:49:25;3.13;;;2.15;;
24961;SDS011;12992;50.884;13.668;2022-12-26T02:52:17;3.65;;;1.92;;
24961;SDS011;12992;50.884;13.668;2022-12-26T02:55:12;2.08;;;1.70;;
24961;SDS011;12992;50.884;13.668;2022-12-26T02:58:09;3.75;;;1.70;;
24961;SDS011;12992;50.884;13.668;2022-12-26T03:01:06;2.22;;;1.70;;
24961;SDS011;12992;50.884;13.668;2022-12-26T03:03:57;3.13;;;2.10;;
24961;SDS011;12992;50.884;13.668;2022-12-26T03:06:52;2.95;;;1.92;;
24961;SDS011;12992;50.884;13.668;2022-12-26T03:09:40;1.85;;;1.63;;
24961;SDS011;12992;50.884;13.668;2022-12-26T03:15:33;1.63;;;1.42;;
24961;SDS011;12992;50.884;13.668;2022-12-26T03:18:32;3.50;;;1.83;;
24961;SDS011;12992;50.884;13.668;2022-12-26T03:21:00;2.30;;;1.60;;
24961;SDS011;12992;50.884;13.668;2022-12-26T03:23:26;4.40;;;1.75;;
24961;SDS011;12992;50.884;13.668;2022-12-26T03:25:53;3.40;;;1.73;;
24961;SDS011;12992;50.884;13.668;2022-12-26T03:28:40;2.60;;;1.60;;
24961;SDS011;12992;50.884;13.668;2022-12-26T03:31:07;1.90;;;1.50;;
24961;SDS011;12992;50.884;13.668;2022-12-26T03:33:36;2.05;;;1.52;;
24961;SDS011;12992;50.884;13.668;2022-12-26T03:36:34;2.20;;;1.60;;
24961;SDS011;12992;50.884;13.668;2022-12-26T03:41:52;2.53;;;1.50;;
24961;SDS011;12992;50.884;13.668;2022-12-26T03:44:54;2.63;;;1.50;;
24961;SDS011;12992;50.884;13.668;2022-12-26T03:47:48;2.65;;;1.70;;
24961;SDS011;12992;50.884;13.668;2022-12-26T03:50:49;2.15;;;1.48;;
24961;SDS011;12992;50.884;13.668;2022-12-26T03:53:42;2.67;;;1.35;;
24961;SDS011;12992;50.884;13.668;2022-12-26T03:56:40;1.38;;;1.27;;
24961;SDS011;12992;50.884;13.668;2022-12-26T03:59:35;1.83;;;1.40;;
24961;SDS011;12992;50.884;13.668;2022-12-26T04:02:37;3.88;;;1.95;;
24961;SDS011;12992;50.884;13.668;2022-12-26T04:05:23;2.85;;;1.60;;
24961;SDS011;12992;50.884;13.668;2022-12-26T04:08:12;2.65;;;1.10;;
24961;SDS011;12992;50.884;13.668;2022-12-26T04:11:01;1.63;;;1.20;;
24961;SDS011;12992;50.884;13.668;2022-12-26T04:13:52;1.77;;;1.27;;
24961;SDS011;12992;50.884;13.668;2022-12-26T04:16:45;2.80;;;1.30;;
24961;SDS011;12992;50.884;13.668;2022-12-26T04:19:43;1.98;;;1.40;;
24961;SDS011;12992;50.884;13.668;2022-12-26T04:22:29;2.25;;;1.60;;
24961;SDS011;12992;50.884;13.668;2022-12-26T04:25:31;1.80;;;1.30;;
24961;SDS011;12992;50.884;13.668;2022-12-26T04:28:21;1.35;;;1.20;;
24961;SDS011;12992;50.884;13.668;2022-12-26T04:31:06;1.30;;;1.20;;
24961;SDS011;12992;50.884;13.668;2022-12-26T04:33:57;1.90;;;1.15;;
24961;SDS011;12992;50.884;13.668;2022-12-26T04:36:48;2.08;;;1.20;;
24961;SDS011;12992;50.884;13.668;2022-12-26T04:39:35;2.90;;;1.40;;
24961;SDS011;12992;50.884;13.668;2022-12-26T04:42:22;1.45;;;1.30;;
24961;SDS011;12992;50.884;13.668;2022-12-26T04:45:08;2.65;;;1.27;;
24961;SDS011;12992;50.884;13.668;2022-12-26T04:47:34;1.58;;;1.25;;
24961;SDS011;12992;50.884;13.668;2022-12-26T04:50:05;4.13;;;1.50;;
24961;SDS011;12992;50.884;13.668;2022-12-26T04:52:40;1.55;;;1.05;;
24961;SDS011;12992;50.884;13.668;2022-12-26T04:55:28;2.25;;;1.33;;
24961;SDS011;12992;50.884;13.668;2022-12-26T04:57:56;1.60;;;1.40;;
24961;SDS011;12992;50.884;13.668;2022-12-26T05:00:22;1.33;;;1.15;;
24961;SDS011;12992;50.884;13.668;2022-12-26T05:02:49;2.25;;;1.50;;
24961;SDS011;12992;50.884;13.668;2022-12-26T05:05:38;2.47;;;1.42;;
24961;SDS011;12992;50.884;13.668;2022-12-26T05:08:26;2.17;;;1.33;;
24961;SDS011;12992;50.884;13.668;2022-12-26T05:11:15;1.63;;;1.10;;
24961;SDS011;12992;50.884;13.668;2022-12-26T05:13:42;2.60;;;1.45;;
24961;SDS011;12992;50.884;13.668;2022-12-26T05:16:07;3.15;;;1.42;;
24961;SDS011;12992;50.884;13.668;2022-12-26T05:18:51;4.05;;;1.40;;
24961;SDS011;12992;50.884;13.668;2022-12-26T05:21:35;1.45;;;1.30;;
24961;SDS011;12992;50.884;13.668;2022-12-26T05:24:20;3.75;;;1.23;;
24961;SDS011;12992;50.884;13.668;2022-12-26T05:27:04;3.75;;;1.60;;
24961;SDS011;12992;50.884;13.668;2022-12-26T05:29:58;2.25;;;1.63;;
24961;SDS011;12992;50.884;13.668;2022-12-26T05:32:24;2.75;;;1.90;;
24961;SDS011;12992;50.884;13.668;2022-12-26T05:35:08;1.95;;;1.30;;
24961;SDS011;12992;50.884;13.668;2022-12-26T05:37:33;1.65;;;1.45;;
24961;SDS011;12992;50.884;13.668;2022-12-26T05:39:59;2.58;;;1.40;;
24961;SDS011;12992;50.884;13.668;2022-12-26T05:42:25;1.50;;;1.40;;
24961;SDS011;12992;50.884;13.668;2022-12-26T05:44:50;1.58;;;1.35;;
24961;SDS011;12992;50.884;13.668;2022-12-26T05:47:15;2.28;;;1.30;;
24961;SDS011;12992;50.884;13.668;2022-12-26T05:49:41;4.20;;;2.53;;
24961;SDS011;12992;50.884;13.668;2022-12-26T05:52:06;3.33;;;1.50;;
24961;SDS011;12992;50.884;13.668;2022-12-26T05:54:31;2.70;;;1.63;;
24961;SDS011;12992;50.884;13.668;2022-12-26T05:56:56;3.30;;;1.70;;
24961;SDS011;12992;50.884;13.668;2022-12-26T05:59:22;3.35;;;1.52;;
24961;SDS011;12992;50.884;13.668;2022-12-26T06:01:47;3.53;;;1.67;;
24961;SDS011;12992;50.884;13.668;2022-12-26T06:04:12;2.45;;;1.60;;
24961;SDS011;12992;50.884;13.668;2022-12-26T06:06:38;2.15;;;1.40;;
24961;SDS011;12992;50.884;13.668;2022-12-26T06:09:04;3.78;;;1.58;;
24961;SDS011;12992;50.884;13.668;2022-12-26T06:11:29;2.10;;;1.58;;
24961;SDS011;12992;50.884;13.668;2022-12-26T06:13:54;1.80;;;1.50;;
24961;SDS011;12992;50.884;13.668;2022-12-26T06:16:20;4.18;;;2.00;;
24961;SDS011;12992;50.884;13.668;2022-12-26T06:18:45;1.75;;;1.38;;
24961;SDS011;12992;50.884;13.668;2022-12-26T06:21:16;2.60;;;1.60;;
24961;SDS011;12992;50.884;13.668;2022-12-26T06:23:43;2.40;;;1.85;;
24961;SDS011;12992;50.884;13.668;2022-12-26T06:26:08;2.15;;;1.52;;
24961;SDS011;12992;50.884;13.668;2022-12-26T06:28:34;4.43;;;1.80;;
24961;SDS011;12992;50.884;13.668;2022-12-26T06:31:00;3.97;;;1.70;;
24961;SDS011;12992;50.884;13.668;2022-12-26T06:33:27;2.75;;;1.60;;
24961;SDS011;12992;50.884;13.668;2022-12-26T06:35:52;2.95;;;1.85;;
24961;SDS011;12992;50.884;13.668;2022-12-26T06:38:17;2.00;;;1.50;;
24961;SDS011;12992;50.884;13.668;2022-12-26T06:40:43;2.30;;;1.52;;
24961;SDS011;12992;50.884;13.668;2022-12-26T06:43:08;3.22;;;1.55;;
24961;SDS011;12992;50.884;13.668;2022-12-26T06:45:34;4.43;;;1.65;;
24961;SDS011;12992;50.884;13.668;2022-12-26T06:48:00;3.88;;;1.83;;
24961;SDS011;12992;50.884;13.668;2022-12-26T06:50:25;2.95;;;1.65;;
24961;SDS011;12992;50.884;13.668;2022-12-26T06:52:51;2.58;;;1.70;;
24961;SDS011;12992;50.884;13.668;2022-12-26T06:55:17;3.30;;;1.70;;
24961;SDS011;12992;50.884;13.668;2022-12-26T06:57:42;3.38;;;1.88;;
24961;SDS011;12992;50.884;13.668;2022-12-26T07:00:08;4.03;;;1.58;;
24961;SDS011;12992;50.884;13.668;2022-12-26T07:02:34;3.28;;;1.80;;
24961;SDS011;12992;50.884;13.668;2022-12-26T07:04:59;2.95;;;1.70;;
24961;SDS011;12992;50.884;13.668;2022-12-26T07:07:25;3.03;;;1.60;;
24961;SDS011;12992;50.884;13.668;2022-12-26T07:09:50;3.97;;;1.58;;
24961;SDS011;12992;50.884;13.668;2022-12-26T07:12:15;5.15;;;1.80;;
24961;SDS011;12992;50.884;13.668;2022-12-26T07:14:44;2.35;;;1.90;;
24961;SDS011;12992;50.884;13.668;2022-12-26T07:17:10;2.03;;;1.73;;
24961;SDS011;12992;50.884;13.668;2022-12-26T07:19:35;4.75;;;1.77;;
24961;SDS011;12992;50.884;13.668;2022-12-26T07:22:00;2.13;;;1.50;;
24961;SDS011;12992;50.884;13.668;2022-12-26T07:24:26;2.78;;;1.60;;
24961;SDS011;12992;50.884;13.668;2022-12-26T07:26:51;2.60;;;1.60;;
24961;SDS011;12992;50.884;13.668;2022-12-26T07:29:16;1.85;;;1.42;;
24961;SDS011;12992;50.884;13.668;2022-12-26T07:31:43;2.30;;;1.50;;
24961;SDS011;12992;50.884;13.668;2022-12-26T07:34:08;2.42;;;1.50;;
24961;SDS011;12992;50.884;13.668;2022-12-26T07:36:34;4.50;;;1.90;;
24961;SDS011;12992;50.884;13.668;2022-12-26T07:38:59;3.05;;;1.80;;
24961;SDS011;12992;50.884;13.668;2022-12-26T07:41:24;2.33;;;1.83;;
24961;SDS011;12992;50.884;13.668;2022-12-26T07:44:09;1.98;;;1.75;;
24961;SDS011;12992;50.884;13.668;2022-12-26T07:46:35;2.17;;;1.55;;
24961;SDS011;12992;50.884;13.668;2022-12-26T07:49:00;1.98;;;1.48;;
24961;SDS011;12992;50.884;13.668;2022-12-26T07:51:26;2.83;;;1.48;;
24961;SDS011;12992;50.884;13.668;2022-12-26T07:53:52;2.40;;;1.42;;
24961;SDS011;12992;50.884;13.668;2022-12-26T07:56:17;2.65;;;1.58;;
24961;SDS011;12992;50.884;13.668;2022-12-26T07:58:42;3.25;;;1.75;;
24961;SDS011;12992;50.884;13.668;2022-12-26T08:01:08;3.88;;;1.60;;
24961;SDS011;12992;50.884;13.668;2022-12-26T08:03:33;3.08;;;1.75;;
24961;SDS011;12992;50.884;13.668;2022-12-26T08:05:59;4.35;;;1.70;;
24961;SDS011;12992;50.884;13.668;2022-12-26T08:08:25;2.13;;;1.50;;
24961;SDS011;12992;50.884;13.668;2022-12-26T08:11:23;2.72;;;1.63;;
24961;SDS011;12992;50.884;13.668;2022-12-26T08:13:45;2.15;;;1.55;;
24961;SDS011;12992;50.884;13.668;2022-12-26T08:16:11;2.03;;;1.23;;
24961;SDS011;12992;50.884;13.668;2022-12-26T08:18:38;3.80;;;1.58;;
24961;SDS011;12992;50.884;13.668;2022-12-26T08:21:03;2.70;;;1.40;;
24961;SDS011;12992;50.884;13.668;2022-12-26T08:23:28;1.92;;;1.25;;
24961;SDS011;12992;50.884;13.668;2022-12-26T08:25:54;2.00;;;1.45;;
24961;SDS011;12992;50.884;13.668;2022-12-26T08:28:19;2.28;;;1.58;;
24961;SDS011;12992;50.884;13.668;2022-12-26T08:30:45;1.40;;;1.30;;
24961;SDS011;12992;50.884;13.668;2022-12-26T08:33:11;2.38;;;1.50;;
24961;SDS011;12992;50.884;13.668;2022-12-26T08:35:37;2.40;;;1.58;;
24961;SDS011;12992;50.884;13.668;2022-12-26T08:38:03;1.98;;;1.40;;
24961;SDS011;12992;50.884;13.668;2022-12-26T08:40:29;2.38;;;1.40;;
24961;SDS011;12992;50.884;13.668;2022-12-26T08:42:55;4.10;;;1.48;;
24961;SDS011;12992;50.884;13.668;2022-12-26T08:45:20;3.78;;;1.42;;
24961;SDS011;12992;50.884;13.668;2022-12-26T08:47:45;2.38;;;1.58;;
24961;SDS011;12992;50.884;13.668;2022-12-26T08:50:11;2.63;;;1.45;;
24961;SDS011;12992;50.884;13.668;2022-12-26T08:52:37;2.95;;;1.40;;
24961;SDS011;12992;50.884;13.668;2022-12-26T08:55:02;2.22;;;1.55;;
24961;SDS011;12992;50.884;13.668;2022-12-26T08:57:28;2.28;;;1.42;;
24961;SDS011;12992;50.884;13.668;2022-12-26T08:59:53;3.38;;;1.63;;
24961;SDS011;12992;50.884;13.668;2022-12-26T09:02:18;3.00;;;1.75;;
24961;SDS011;12992;50.884;13.668;2022-12-26T09:04:44;1.45;;;1.35;;
24961;SDS011;12992;50.884;13.668;2022-12-26T09:07:09;2.20;;;1.55;;
24961;SDS011;12992;50.884;13.668;2022-12-26T09:09:34;2.65;;;1.40;;
24961;SDS011;12992;50.884;13.668;2022-12-26T09:12:00;2.78;;;1.55;;
24961;SDS011;12992;50.884;13.668;2022-12-26T09:14:26;3.33;;;1.65;;
24961;SDS011;12992;50.884;13.668;2022-12-26T09:16:51;3.20;;;1.85;;
24961;SDS011;12992;50.884;13.668;2022-12-26T09:19:18;3.83;;;1.58;;
24961;SDS011;12992;50.884;13.668;2022-12-26T09:21:45;2.17;;;1.48;;
24961;SDS011;12992;50.884;13.668;2022-12-26T09:24:12;2.92;;;1.65;;
24961;SDS011;12992;50.884;13.668;2022-12-26T09:26:38;2.83;;;1.48;;
24961;SDS011;12992;50.884;13.668;2022-12-26T09:29:04;3.42;;;1.77;;
24961;SDS011;12992;50.884;13.668;2022-12-26T09:31:31;3.05;;;1.80;;
24961;SDS011;12992;50.884;13.668;2022-12-26T09:33:59;1.83;;;1.30;;
24961;SDS011;12992;50.884;13.668;2022-12-26T09:36:27;2.65;;;1.40;;
24961;SDS011;12992;50.884;13.668;2022-12-26T09:38:54;2.67;;;1.60;;
24961;SDS011;12992;50.884;13.668;2022-12-26T09:49:38;1.75;;;1.38;;
24961;SDS011;12992;50.884;13.668;2022-12-26T09:52:14;3.17;;;1.52;;
24961;SDS011;12992;50.884;13.668;2022-12-26T09:54:50;2.17;;;1.40;;
24961;SDS011;12992;50.884;13.668;2022-12-26T09:57:36;4.63;;;1.60;;
24961;SDS011;12992;50.884;13.668;2022-12-26T10:00:06;2.15;;;1.42;;
24961;SDS011;12992;50.884;13.668;2022-12-26T10:02:45;1.95;;;1.35;;
24961;SDS011;12992;50.884;13.668;2022-12-26T10:05:22;4.10;;;1.50;;
24961;SDS011;12992;50.884;13.668;2022-12-26T10:08:00;2.78;;;1.50;;
24961;SDS011;12992;50.884;13.668;2022-12-26T10:10:42;4.13;;;1.48;;
24961;SDS011;12992;50.884;13.668;2022-12-26T10:13:18;1.30;;;1.10;;
24961;SDS011;12992;50.884;13.668;2022-12-26T10:15:52;1.25;;;1.15;;
24961;SDS011;12992;50.884;13.668;2022-12-26T10:23:58;2.53;;;1.35;;
24961;SDS011;12992;50.884;13.668;2022-12-26T10:26:35;2.65;;;1.50;;
24961;SDS011;12992;50.884;13.668;2022-12-26T10:34:22;1.67;;;1.27;;
24961;SDS011;12992;50.884;13.668;2022-12-26T10:42:10;2.03;;;1.33;;
24961;SDS011;12992;50.884;13.668;2022-12-26T10:44:50;2.50;;;1.45;;
24961;SDS011;12992;50.884;13.668;2022-12-26T10:47:19;2.45;;;1.52;;
24961;SDS011;12992;50.884;13.668;2022-12-26T10:49:49;1.65;;;1.35;;
24961;SDS011;12992;50.884;13.668;2022-12-26T10:52:15;4.40;;;1.42;;
24961;SDS011;12992;50.884;13.668;2022-12-26T10:54:44;2.08;;;1.60;;
24961;SDS011;12992;50.884;13.668;2022-12-26T10:57:14;1.38;;;1.13;;
24961;SDS011;12992;50.884;13.668;2022-12-26T10:59:41;4.10;;;1.50;;
24961;SDS011;12992;50.884;13.668;2022-12-26T11:02:29;2.90;;;1.70;;
24961;SDS011;12992;50.884;13.668;2022-12-26T11:05:08;3.13;;;1.60;;
24961;SDS011;12992;50.884;13.668;2022-12-26T11:07:36;1.67;;;1.30;;
24961;SDS011;12992;50.884;13.668;2022-12-26T11:10:13;2.38;;;1.42;;
24961;SDS011;12992;50.884;13.668;2022-12-26T11:12:56;1.20;;;1.10;;
24961;SDS011;12992;50.884;13.668;2022-12-26T11:18:14;1.63;;;1.10;;
24961;SDS011;12992;50.884;13.668;2022-12-26T11:20:41;1.60;;;1.17;;
24961;SDS011;12992;50.884;13.668;2022-12-26T11:23:23;2.75;;;1.17;;
24961;SDS011;12992;50.884;13.668;2022-12-26T11:25:51;2.42;;;1.20;;
24961;SDS011;12992;50.884;13.668;2022-12-26T11:28:39;1.85;;;1.30;;
24961;SDS011;12992;50.884;13.668;2022-12-26T11:31:05;2.42;;;1.25;;
24961;SDS011;12992;50.884;13.668;2022-12-26T11:33:42;2.83;;;1.50;;
24961;SDS011;12992;50.884;13.668;2022-12-26T11:36:20;1.88;;;1.33;;
24961;SDS011;12992;50.884;13.668;2022-12-26T11:44:11;2.55;;;1.23;;
24961;SDS011;12992;50.884;13.668;2022-12-26T11:49:23;1.95;;;0.95;;
24961;SDS011;12992;50.884;13.668;2022-12-26T11:51:51;1.70;;;1.30;;
24961;SDS011;12992;50.884;13.668;2022-12-26T11:54:22;1.13;;;1.02;;
24961;SDS011;12992;50.884;13.668;2022-12-26T11:56:58;2.33;;;1.23;;
24961;SDS011;12992;50.884;13.668;2022-12-26T11:59:26;1.88;;;1.27;;
24961;SDS011;12992;50.884;13.668;2022-12-26T12:02:12;1.23;;;1.08;;
24961;SDS011;12992;50.884;13.668;2022-12-26T12:04:40;1.00;;;0.88;;
24961;SDS011;12992;50.884;13.668;2022-12-26T12:07:08;1.40;;;1.08;;
24961;SDS011;12992;50.884;13.668;2022-12-26T12:09:50;1.92;;;1.00;;
24961;SDS011;12992;50.884;13.668;2022-12-26T12:15:17;1.85;;;1.15;;
24961;SDS011;12992;50.884;13.668;2022-12-26T12:17:57;1.10;;;0.90;;
24961;SDS011;12992;50.884;13.668;2022-12-26T12:20:52;1.60;;;1.23;;
24961;SDS011;12992;50.884;13.668;2022-12-26T12:23:23;1.95;;;1.35;;
24961;SDS011;12992;50.884;13.668;2022-12-26T12:26:03;1.70;;;1.13;;
24961;SDS011;12992;50.884;13.668;2022-12-26T12:28:52;5.03;;;1.38;;
24961;SDS011;12992;50.884;13.668;2022-12-26T12:31:52;1.70;;;1.25;;
24961;SDS011;12992;50.884;13.668;2022-12-26T12:43:47;2.05;;;1.00;;
24961;SDS011;12992;50.884;13.668;2022-12-26T12:46:26;1.80;;;1.08;;
24961;SDS011;12992;50.884;13.668;2022-12-26T12:52:10;1.90;;;1.10;;
24961;SDS011;12992;50.884;13.668;2022-12-26T12:54:47;1.30;;;1.02;;
24961;SDS011;12992;50.884;13.668;2022-12-26T13:05:15;3.08;;;1.33;;
24961;SDS011;12992;50.884;13.668;2022-12-26T13:07:47;1.48;;;1.10;;
24961;SDS011;12992;50.884;13.668;2022-12-26T13:10:20;1.77;;;1.35;;
24961;SDS011;12992;50.884;13.668;2022-12-26T13:12:49;2.42;;;1.25;;
24961;SDS011;12992;50.884;13.668;2022-12-26T13:17:56;1.45;;;1.02;;
24961;SDS011;12992;50.884;13.668;2022-12-26T13:20:39;1.95;;;1.00;;
24961;SDS011;12992;50.884;13.668;2022-12-26T13:26:06;1.38;;;1.15;;
24961;SDS011;12992;50.884;13.668;2022-12-26T13:28:35;3.33;;;1.40;;
24961;SDS011;12992;50.884;13.668;2022-12-26T13:31:09;1.98;;;1.20;;
24961;SDS011;12992;50.884;13.668;2022-12-26T13:33:34;2.83;;;1.50;;
24961;SDS011;12992;50.884;13.668;2022-12-26T13:36:03;1.30;;;1.20;;
24961;SDS011;12992;50.884;13.668;2022-12-26T13:41:19;1.60;;;1.50;;
24961;SDS011;12992;50.884;13.668;2022-12-26T13:44:05;1.23;;;1.13;;
24961;SDS011;12992;50.884;13.668;2022-12-26T13:51:53;1.42;;;1.10;;
24961;SDS011;12992;50.884;13.668;2022-12-26T14:02:42;1.65;;;1.17;;
24961;SDS011;12992;50.884;13.668;2022-12-26T14:11:25;3.03;;;1.00;;
24961;SDS011;12992;50.884;13.668;2022-12-26T14:17:13;1.58;;;0.93;;
24961;SDS011;12992;50.884;13.668;2022-12-26T14:23:04;0.80;;;0.75;;
24961;SDS011;12992;50.884;13.668;2022-12-26T14:28:10;1.20;;;0.70;;
24961;SDS011;12992;50.884;13.668;2022-12-26T14:44:50;0.73;;;0.65;;
24961;SDS011;12992;50.884;13.668;2022-12-26T14:55:53;0.82;;;0.82;;
24961;SDS011;12992;50.884;13.668;2022-12-26T15:06:36;0.85;;;0.80;;
24961;SDS011;12992;50.884;13.668;2022-12-26T15:12:35;2.25;;;1.17;;
24961;SDS011;12992;50.884;13.668;2022-12-26T15:18:20;1.35;;;0.98;;
24961;SDS011;12992;50.884;13.668;2022-12-26T15:21:01;2.13;;;1.10;;
24961;SDS011;12992;50.884;13.668;2022-12-26T15:31:57;2.85;;;1.13;;
24961;SDS011;12992;50.884;13.668;2022-12-26T15:34:39;3.05;;;1.10;;
24961;SDS011;12992;50.884;13.668;2022-12-26T15:40:22;1.42;;;1.33;;
24961;SDS011;12992;50.884;13.668;2022-12-26T15:45:46;1.98;;;1.20;;
24961;SDS011;12992;50.884;13.668;2022-12-26T15:51:08;1.77;;;1.20;;
24961;SDS011;12992;50.884;13.668;2022-12-26T15:59:24;1.27;;;1.17;;
24961;SDS011;12992;50.884;13.668;2022-12-26T16:03:05;2.88;;;1.17;;
24961;SDS011;12992;50.884;13.668;2022-12-26T16:07:39;1.48;;;1.15;;
24961;SDS011;12992;50.884;13.668;2022-12-26T16:10:14;1.77;;;1.42;;
24961;SDS011;12992;50.884;13.668;2022-12-26T16:12:56;1.50;;;1.17;;
24961;SDS011;12992;50.884;13.668;2022-12-26T16:15:21;0.93;;;0.90;;
24961;SDS011;12992;50.884;13.668;2022-12-26T16:17:49;1.00;;;0.90;;
24961;SDS011;12992;50.884;13.668;2022-12-26T16:20:20;1.55;;;1.20;;
24961;SDS011;12992;50.884;13.668;2022-12-26T16:23:17;2.42;;;1.40;;
24961;SDS011;12992;50.884;13.668;2022-12-26T16:25:49;1.77;;;1.30;;
24961;SDS011;12992;50.884;13.668;2022-12-26T16:28:18;2.55;;;1.27;;
24961;SDS011;12992;50.884;13.668;2022-12-26T16:30:50;1.48;;;1.13;;
24961;SDS011;12992;50.884;13.668;2022-12-26T16:33:15;1.35;;;1.08;;
24961;SDS011;12992;50.884;13.668;2022-12-26T16:35:41;1.23;;;1.10;;
24961;SDS011;12992;50.884;13.668;2022-12-26T16:38:11;1.20;;;1.10;;
24961;SDS011;12992;50.884;13.668;2022-12-26T16:40:47;1.27;;;1.15;;
24961;SDS011;12992;50.884;13.668;2022-12-26T16:45:43;1.83;;;1.20;;
24961;SDS011;12992;50.884;13.668;2022-12-26T16:48:12;2.10;;;1.27;;
24961;SDS011;12992;50.884;13.668;2022-12-26T16:53:20;1.67;;;1.33;;
24961;SDS011;12992;50.884;13.668;2022-12-26T16:56:20;1.73;;;1.20;;
24961;SDS011;12992;50.884;13.668;2022-12-26T16:59:04;1.17;;;1.08;;
24961;SDS011;12992;50.884;13.668;2022-12-26T17:01:35;1.45;;;1.17;;
24961;SDS011;12992;50.884;13.668;2022-12-26T17:04:02;3.30;;;1.40;;
24961;SDS011;12992;50.884;13.668;2022-12-26T17:06:33;1.60;;;1.20;;
24961;SDS011;12992;50.884;13.668;2022-12-26T17:09:07;1.20;;;1.10;;
24961;SDS011;12992;50.884;13.668;2022-12-26T17:11:44;2.78;;;1.30;;
24961;SDS011;12992;50.884;13.668;2022-12-26T17:14:24;1.75;;;1.10;;
24961;SDS011;12992;50.884;13.668;2022-12-26T17:17:02;3.50;;;1.40;;
24961;SDS011;12992;50.884;13.668;2022-12-26T17:19:31;1.83;;;1.27;;
24961;SDS011;12992;50.884;13.668;2022-12-26T17:24:38;1.67;;;1.15;;
24961;SDS011;12992;50.884;13.668;2022-12-26T17:27:22;1.48;;;1.10;;
24961;SDS011;12992;50.884;13.668;2022-12-26T17:32:20;1.25;;;1.00;;
24961;SDS011;12992;50.884;13.668;2022-12-26T17:34:47;1.95;;;1.27;;
24961;SDS011;12992;50.884;13.668;2022-12-26T17:37:22;2.00;;;1.20;;
24961;SDS011;12992;50.884;13.668;2022-12-26T17:39:57;2.08;;;1.30;;
24961;SDS011;12992;50.884;13.668;2022-12-26T17:42:28;1.15;;;1.05;;
24961;SDS011;12992;50.884;13.668;2022-12-26T17:45:02;1.15;;;1.05;;
24961;SDS011;12992;50.884;13.668;2022-12-26T17:47:27;2.10;;;1.20;;
24961;SDS011;12992;50.884;13.668;2022-12-26T17:49:53;1.83;;;1.10;;
24961;SDS011;12992;50.884;13.668;2022-12-26T17:52:20;3.25;;;1.35;;
24961;SDS011;12992;50.884;13.668;2022-12-26T17:54:49;1.40;;;1.30;;
24961;SDS011;12992;50.884;13.668;2022-12-26T17:57:16;1.45;;;1.20;;
24961;SDS011;12992;50.884;13.668;2022-12-26T17:59:46;2.05;;;1.45;;
24961;SDS011;12992;50.884;13.668;2022-12-26T18:02:12;1.58;;;1.20;;
24961;SDS011;12992;50.884;13.668;2022-12-26T18:04:38;0.98;;;0.90;;
24961;SDS011;12992;50.884;13.668;2022-12-26T18:07:03;0.95;;;0.90;;
24961;SDS011;12992;50.884;13.668;2022-12-26T18:09:29;1.30;;;0.90;;
24961;SDS011;12992;50.884;13.668;2022-12-26T18:11:55;1.27;;;0.98;;
24961;SDS011;12992;50.884;13.668;2022-12-26T18:14:20;1.13;;;1.00;;
24961;SDS011;12992;50.884;13.668;2022-12-26T18:16:47;1.20;;;0.80;;